Time;durP1;ratioP1;P1;durP2;ratioP2;P2;SDS_P1;SDS_P2;PMS_P1;PMS_P2;Temp;Humidity;BMP_temperature;BMP_pressure;BME280_temperature;BME280_humidity;BME280_pressure;Samples;Min_cycle;Max_cycle;Signal;HPM_P1;HPM_P2
2023/10/26 00:01:46;;;;;;;;;0.00;0.00;;;;;12.78;100.00;99429.06;6305144;22;45195;-87
2023/10/26 00:04:12;;;;;;;;;0.00;0.00;;;;;12.82;100.00;99434.94;6305075;22;49153;-87
2023/10/26 00:06:38;;;;;;;;;0.00;0.00;;;;;12.83;100.00;99422.72;6250461;22;72441;-86
2023/10/26 00:09:03;;;;;;;;;0.00;0.00;;;;;12.88;100.00;99426.72;6277302;22;45297;-87
2023/10/26 00:11:30;;;;;;;;;0.00;0.00;;;;;12.87;100.00;99408.53;6277524;22;47566;-87
2023/10/26 00:13:56;;;;;;;;;0.00;0.00;;;;;12.87;100.00;99404.16;6304726;22;45309;-86
2023/10/26 00:16:21;;;;;;;;;0.00;0.00;;;;;12.89;100.00;99401.44;6277770;22;45305;-86
2023/10/26 00:18:46;;;;;;;;;0.00;0.00;;;;;12.93;100.00;99401.19;6305051;22;45733;-86
2023/10/26 00:21:12;;;;;;;;;0.00;0.00;;;;;12.95;100.00;99409.75;6277230;22;54718;-87
2023/10/26 00:23:37;;;;;;;;;0.00;0.00;;;;;12.92;100.00;99404.72;6251883;22;45513;-86
2023/10/26 00:26:03;;;;;;;;;0.00;0.00;;;;;12.98;100.00;99401.75;6251733;22;46831;-87
2023/10/26 00:28:28;;;;;;;;;0.00;0.00;;;;;13.03;100.00;99406.69;6304310;22;45448;-87
2023/10/26 00:30:53;;;;;;;;;0.00;0.00;;;;;13.03;100.00;99396.25;6277239;22;61305;-87
2023/10/26 00:33:19;;;;;;;;;0.00;0.00;;;;;13.03;100.00;99398.84;6251387;22;45406;-87
2023/10/26 00:35:45;;;;;;;;;0.00;0.00;;;;;13.06;100.00;99390.00;6303146;22;48053;-87
2023/10/26 00:38:10;;;;;;;;;0.00;0.00;;;;;13.05;100.00;99378.69;6277757;22;45237;-87
2023/10/26 00:40:35;;;;;;;;;0.00;0.00;;;;;13.11;100.00;99394.03;6278171;22;45298;-87
2023/10/26 00:43:02;;;;;;;;;0.00;0.00;;;;;13.10;100.00;99389.72;6277385;22;45176;-88
2023/10/26 00:45:31;;;;;;;;;0.00;0.00;;;;;13.12;100.00;99390.47;6304724;22;47113;-87
2023/10/26 00:47:57;;;;;;;;;0.00;0.00;;;;;13.11;100.00;99382.72;6304618;22;45352;-86
2023/10/26 00:50:22;;;;;;;;;0.00;0.00;;;;;13.11;100.00;99388.78;6277579;22;45320;-87
2023/10/26 00:52:48;;;;;;;;;0.00;0.00;;;;;13.12;100.00;99379.19;6276835;22;56134;-87
2023/10/26 00:55:13;;;;;;;;;0.00;0.00;;;;;13.15;100.00;99384.22;6277064;22;47333;-87
2023/10/26 00:57:38;;;;;;;;;0.00;0.00;;;;;13.12;100.00;99381.78;6251404;22;45816;-86
2023/10/26 01:00:07;;;;;;;;;0.00;0.00;;;;;13.14;100.00;99375.53;6277908;22;45322;-87
2023/10/26 01:02:32;;;;;;;;;0.00;0.00;;;;;13.16;100.00;99376.25;6252288;22;45252;-87
2023/10/26 01:04:58;;;;;;;;;0.00;0.00;;;;;13.13;100.00;99368.63;6277483;22;46944;-87
2023/10/26 01:07:23;;;;;;;;;0.00;0.00;;;;;13.14;100.00;99372.06;6277849;22;46953;-88
2023/10/26 01:09:48;;;;;;;;;0.00;0.00;;;;;13.15;100.00;99365.94;6277734;22;45412;-87
2023/10/26 01:12:14;;;;;;;;;0.00;0.00;;;;;13.12;100.00;99358.28;6251439;22;45475;-88
2023/10/26 01:14:39;;;;;;;;;0.00;0.00;;;;;13.11;100.00;99352.22;6276796;22;45298;-88
2023/10/26 01:17:05;;;;;;;;;0.00;0.00;;;;;13.10;100.00;99357.53;6252063;22;45487;-88
2023/10/26 01:19:41;;;;;;;;;0.00;0.00;;;;;13.15;100.00;99369.38;6277875;22;45425;-89
2023/10/26 01:22:06;;;;;;;;;0.00;0.00;;;;;13.13;100.00;99367.78;6277616;22;45412;-88
2023/10/26 01:24:32;;;;;;;;;0.00;0.00;;;;;13.11;100.00;99365.28;6278209;22;45484;-88
2023/10/26 01:26:57;;;;;;;;;0.00;0.00;;;;;13.07;100.00;99361.16;6251418;22;45341;-88
2023/10/26 01:29:23;;;;;;;;;0.00;0.00;;;;;13.10;100.00;99355.75;6305217;22;45543;-88
2023/10/26 01:31:48;;;;;;;;;0.00;0.00;;;;;13.05;100.00;99341.28;6251517;22;45478;-88
2023/10/26 01:34:14;;;;;;;;;0.00;0.00;;;;;13.09;100.00;99348.88;6277953;22;46154;-88
2023/10/26 01:36:39;;;;;;;;;0.00;0.00;;;;;13.05;100.00;99342.13;6277782;22;45451;-88
2023/10/26 01:39:05;;;;;;;;;0.00;0.00;;;;;13.06;100.00;99350.81;6251858;22;45236;-88
2023/10/26 01:41:33;;;;;;;;;0.00;0.00;;;;;13.04;100.00;99344.81;6277450;22;45230;-88
2023/10/26 01:44:02;;;;;;;;;0.00;0.00;;;;;12.99;100.00;99337.28;6251286;22;47799;-88
2023/10/26 01:46:27;;;;;;;;;0.75;0.75;;;;;12.97;100.00;99336.53;6277436;22;45415;-88
2023/10/26 01:48:53;;;;;;;;;0.00;0.00;;;;;13.00;100.00;99340.72;6251015;22;58240;-88
2023/10/26 01:51:18;;;;;;;;;0.00;0.00;;;;;12.94;100.00;99332.31;6251569;22;45403;-88
2023/10/26 01:53:44;;;;;;;;;0.00;0.00;;;;;12.94;100.00;99344.56;6251501;22;47905;-87
2023/10/26 01:56:09;;;;;;;;;0.00;0.00;;;;;12.90;100.00;99340.47;6304319;22;45258;-88
2023/10/26 01:58:35;;;;;;;;;0.00;0.00;;;;;12.88;100.00;99324.88;6250659;22;60467;-88
2023/10/26 02:01:03;;;;;;;;;0.00;0.00;;;;;12.90;100.00;99332.63;6278247;22;45410;-88
2023/10/26 02:03:28;;;;;;;;;0.00;0.00;;;;;12.87;100.00;99323.22;6304536;22;46113;-87
2023/10/26 02:05:53;;;;;;;;;0.00;0.00;;;;;12.87;100.00;99319.75;6305144;22;45412;-87
2023/10/26 02:08:19;;;;;;;;;0.00;0.00;;;;;12.88;100.00;99311.81;6277857;22;45408;-88
2023/10/26 02:10:49;;;;;;;;;0.00;0.00;;;;;12.79;100.00;99304.53;6276943;22;45330;-89
2023/10/26 02:13:17;;;;;;;;;0.00;0.00;;;;;12.77;100.00;99302.03;6278471;22;46634;-88
2023/10/26 02:15:49;;;;;;;;;0.00;0.00;;;;;12.70;100.00;99281.59;6252434;22;45618;-88
2023/10/26 02:18:15;;;;;;;;;0.00;0.00;;;;;12.72;100.00;99291.03;6277632;22;45424;-89
2023/10/26 02:20:43;;;;;;;;;0.00;0.00;;;;;12.73;100.00;99281.44;6278064;22;45387;-89
2023/10/26 02:23:08;;;;;;;;;0.00;0.00;;;;;12.71;100.00;99281.53;6277099;22;46727;-89
2023/10/26 02:25:34;;;;;;;;;0.00;0.00;;;;;12.71;100.00;99288.53;6304545;22;45239;-89
2023/10/26 02:27:59;;;;;;;;;0.00;0.00;;;;;12.71;100.00;99278.06;6304920;22;45230;-88
2023/10/26 02:30:25;;;;;;;;;0.00;0.00;;;;;12.74;100.00;99283.09;6277581;22;45334;-89
2023/10/26 02:32:52;;;;;;;;;0.00;0.00;;;;;12.75;100.00;99282.19;6276857;22;46946;-89
2023/10/26 02:35:32;;;;;;;;;0.00;0.00;;;;;12.79;100.00;99278.44;6251731;22;45401;-90
2023/10/26 02:38:05;;;;;;;;;0.00;0.00;;;;;12.77;100.00;99270.69;6279121;22;45304;-90
2023/10/26 02:41:23;;;;;;;;;0.00;0.00;;;;;12.76;100.00;99261.19;6277460;22;45534;-90
2023/10/26 02:43:58;;;;;;;;;0.00;0.00;;;;;12.78;100.00;99259.31;6259966;22;47054;-89
2023/10/26 02:46:24;;;;;;;;;0.00;0.00;;;;;12.78;100.00;99250.66;6278935;22;45417;-89
2023/10/26 02:48:49;;;;;;;;;0.00;0.00;;;;;12.82;100.00;99248.72;6252129;22;45433;-89
2023/10/26 02:51:40;;;;;;;;;0.00;0.00;;;;;12.85;100.00;99253.72;6277704;22;45340;-89
2023/10/26 03:33:39;;;;;;;;;;;;;;;;;;;;;
2023/10/26 03:47:18;;;;;;;;;0.00;0.00;;;;;13.02;100.00;99166.47;5823876;24;45651;-90
2023/10/26 03:50:57;;;;;;;;;0.00;0.00;;;;;13.05;100.00;99172.34;5811853;24;47175;-92
2023/10/26 03:53:58;;;;;;;;;0.00;0.00;;;;;13.06;100.00;99171.41;5834670;24;45412;-91
2023/10/26 03:57:06;;;;;;;;;;;;;;;;;;;;;
2023/10/26 03:59:31;;;;;;;;;0.00;0.00;;;;;13.10;100.00;99159.00;5889191;24;68380;-90
2023/10/26 04:01:57;;;;;;;;;0.00;0.00;;;;;13.17;100.00;99161.09;5892903;24;47955;-89
2023/10/26 04:04:22;;;;;;;;;0.00;0.00;;;;;13.14;100.00;99142.19;5893264;24;45284;-89
2023/10/26 04:06:48;;;;;;;;;0.00;0.00;;;;;13.13;100.00;99133.50;5893688;24;45635;-89
2023/10/26 04:09:13;;;;;;;;;0.00;0.00;;;;;13.16;100.00;99154.19;5892834;24;45820;-90
2023/10/26 04:11:42;;;;;;;;;0.00;0.00;;;;;13.16;100.00;99156.81;5892863;24;46548;-89
2023/10/26 04:14:07;;;;;;;;;0.00;0.00;;;;;13.16;100.00;99163.81;5892923;24;45326;-90
2023/10/26 04:16:35;;;;;;;;;0.00;0.00;;;;;13.13;100.00;99148.31;5920193;23;45543;-88
2023/10/26 04:19:00;;;;;;;;;0.00;0.00;;;;;13.10;100.00;99149.38;5999132;23;45381;-88
2023/10/26 04:21:26;;;;;;;;;0.00;0.00;;;;;13.13;100.00;99154.41;6180109;23;46346;-89
2023/10/26 04:23:51;;;;;;;;;0.00;0.00;;;;;13.15;100.00;99146.47;6154864;23;45346;-89
2023/10/26 04:26:17;;;;;;;;;0.00;0.00;;;;;13.12;100.00;99142.28;6155376;23;45178;-89
2023/10/26 04:28:42;;;;;;;;;0.00;0.00;;;;;13.10;100.00;99141.53;6171017;22;45263;-88
2023/10/26 04:31:07;;;;;;;;;0.00;0.00;;;;;13.16;100.00;99145.53;6252654;22;47189;-88
2023/10/26 04:33:33;;;;;;;;;0.00;0.00;;;;;13.13;100.00;99146.56;6278322;22;45136;-89
2023/10/26 04:36:02;;;;;;;;;0.00;0.00;;;;;13.11;100.00;99140.63;6252405;22;45436;-88
2023/10/26 04:38:28;;;;;;;;;0.00;0.00;;;;;13.14;100.00;99132.56;6279325;22;45568;-89
2023/10/26 04:40:54;;;;;;;;;0.00;0.00;;;;;13.10;100.00;99131.09;6278042;22;46944;-89
2023/10/26 04:43:22;;;;;;;;;0.25;0.25;;;;;13.12;100.00;99137.03;6305685;22;45257;-89
2023/10/26 04:45:48;;;;;;;;;0.00;0.00;;;;;13.07;100.00;99123.44;6278463;22;45299;-89
2023/10/26 04:48:13;;;;;;;;;0.00;0.00;;;;;13.11;100.00;99132.78;6251780;22;45483;-89
2023/10/26 04:50:39;;;;;;;;;0.00;0.00;;;;;13.12;100.00;99123.97;6277010;22;47962;-89
2023/10/26 04:53:04;;;;;;;;;0.00;0.00;;;;;13.14;100.00;99121.28;6251858;22;45404;-89
2023/10/26 04:55:36;;;;;;;;;0.00;0.00;;;;;13.09;100.00;99116.38;6252476;22;45492;-89
2023/10/26 04:58:02;;;;;;;;;0.00;0.00;;;;;13.15;100.00;99117.75;6279300;22;45457;-88
2023/10/26 05:00:27;;;;;;;;;0.00;0.00;;;;;13.11;100.00;99124.94;6252253;22;47975;-89
2023/10/26 05:02:53;;;;;;;;;0.00;0.00;;;;;13.16;100.00;99122.84;6277939;22;45254;-88
2023/10/26 05:05:21;;;;;;;;;0.00;0.00;;;;;13.14;100.00;99113.44;6305140;22;45415;-89
2023/10/26 05:07:54;;;;;;;;;0.00;0.00;;;;;13.19;100.00;99111.38;6305796;22;45541;-89
2023/10/26 05:10:20;;;;;;;;;0.00;0.00;;;;;13.17;100.00;99098.41;6279195;22;46186;-89
2023/10/26 05:12:50;;;;;;;;;0.00;0.00;;;;;13.22;100.00;99092.03;6252642;22;45394;-90
2023/10/26 05:15:18;;;;;;;;;0.00;0.00;;;;;13.26;100.00;99090.88;6305765;22;45171;-90
2023/10/26 05:17:47;;;;;;;;;0.00;0.00;;;;;13.30;100.00;99092.38;6305845;22;45384;-89
2023/10/26 05:20:12;;;;;;;;;0.00;0.00;;;;;13.31;100.00;99079.22;6277738;22;46739;-89
2023/10/26 05:22:40;;;;;;;;;0.00;0.00;;;;;13.29;100.00;99075.84;6252721;22;45807;-90
2023/10/26 05:25:13;;;;;;;;;0.00;0.00;;;;;13.36;100.00;99081.53;6278749;22;45234;-89
2023/10/26 05:27:39;;;;;;;;;0.00;0.00;;;;;13.34;100.00;99075.59;6305658;22;45211;-89
2023/10/26 05:30:08;;;;;;;;;0.00;0.00;;;;;13.35;100.00;99079.84;6306275;22;45375;-89
2023/10/26 05:32:43;;;;;;;;;0.00;0.00;;;;;13.40;100.00;99077.78;6305418;22;45374;-89
2023/10/26 05:35:09;;;;;;;;;0.00;0.00;;;;;13.41;100.00;99073.38;6280103;22;45293;-89
2023/10/26 05:37:34;;;;;;;;;0.00;0.00;;;;;13.42;100.00;99075.06;6277861;22;45284;-89
2023/10/26 05:40:04;;;;;;;;;0.00;0.00;;;;;13.43;100.00;99067.13;6278242;22;46274;-89
2023/10/26 05:42:39;;;;;;;;;0.00;0.00;;;;;13.47;100.00;99076.44;6305716;22;45113;-90
2023/10/26 05:45:08;;;;;;;;;0.00;0.00;;;;;13.47;100.00;99065.16;6306087;22;45200;-89
2023/10/26 05:50:59;;;;;;;;;0.00;0.00;;;;;13.51;100.00;99069.22;6266486;22;46275;-90
2023/10/26 05:53:24;;;;;;;;;0.00;0.00;;;;;13.51;100.00;99072.66;6305242;22;45376;-90
2023/10/26 05:56:03;;;;;;;;;0.00;0.00;;;;;13.57;100.00;99086.25;6277989;22;45366;-89
2023/10/26 05:58:31;;;;;;;;;0.00;0.00;;;;;13.52;100.00;99083.94;6305725;22;45362;-90
2023/10/26 06:00:59;;;;;;;;;0.00;0.00;;;;;13.55;100.00;99088.97;6277586;22;47181;-89
2023/10/26 06:03:30;;;;;;;;;0.00;0.00;;;;;13.53;100.00;99104.75;6304610;22;45383;-90
2023/10/26 06:07:01;;;;;;;;;;;;;;;;;;;;;
2023/10/26 06:09:46;;;;;;;;;0.00;0.00;;;;;13.47;100.00;99096.50;6304613;22;70013;-90
2023/10/26 06:12:12;;;;;;;;;0.00;0.00;;;;;13.44;100.00;99097.53;6200174;22;47188;-86
2023/10/26 06:14:47;;;;;;;;;0.00;0.00;;;;;13.42;100.00;99109.88;6277591;22;45305;-87
2023/10/26 06:17:12;;;;;;;;;0.00;0.00;;;;;13.38;100.00;99102.34;6251630;22;45332;-87
2023/10/26 06:19:41;;;;;;;;;0.00;0.00;;;;;13.33;100.00;99113.94;6304547;22;45408;-88
2023/10/26 06:22:06;;;;;;;;;0.00;0.00;;;;;13.32;100.00;99109.66;6277592;22;45210;-87
2023/10/26 06:24:34;;;;;;;;;0.00;0.00;;;;;13.33;100.00;99116.56;6245070;22;45413;-87
2023/10/26 06:26:59;;;;;;;;;0.00;0.00;;;;;13.33;100.00;99111.34;6246331;22;45308;-86
2023/10/26 06:29:26;;;;;;;;;0.00;0.00;;;;;13.31;100.00;99109.75;6272590;22;45461;-86
2023/10/26 06:31:54;;;;;;;;;0.00;0.00;;;;;13.31;100.00;99120.19;6272488;22;45611;-86
2023/10/26 06:34:21;;;;;;;;;0.00;0.00;;;;;13.32;100.00;99116.66;6271760;22;45641;-87
2023/10/26 06:36:49;;;;;;;;;0.00;0.00;;;;;13.26;100.00;99117.88;6272468;22;45245;-87
2023/10/26 06:39:14;;;;;;;;;0.00;0.00;;;;;13.30;100.00;99135.06;6271070;22;45420;-86
2023/10/26 06:42:00;;;;;;;;;0.00;0.00;;;;;13.30;100.00;99134.19;6245225;22;47965;-87
2023/10/26 06:44:25;;;;;;;;;0.00;0.00;;;;;13.36;100.00;99134.63;6244637;22;45917;-83
2023/10/26 06:46:51;;;;;;;;;0.00;0.00;;;;;13.36;100.00;99144.25;6272535;22;45235;-84
2023/10/26 06:49:16;;;;;;;;;0.00;0.00;;;;;13.35;100.00;99153.03;6270578;22;45542;-84
2023/10/26 06:51:41;;;;;;;;;0.00;0.00;;;;;13.32;100.00;99159.31;6270204;22;61004;-84
2023/10/26 06:54:07;;;;;;;;;0.00;0.00;;;;;13.33;100.00;99168.84;6245113;22;45235;-84
2023/10/26 06:56:32;;;;;;;;;0.00;0.00;;;;;13.34;100.00;99164.44;6271050;22;45251;-83
2023/10/26 06:58:57;;;;;;;;;0.00;0.00;;;;;13.34;100.00;99175.72;6272903;22;45412;-83
2023/10/26 07:01:23;;;;;;;;;0.00;0.00;;;;;13.38;100.00;99194.66;6272468;22;45280;-82
2023/10/26 07:03:50;;;;;;;;;0.00;0.00;;;;;13.36;100.00;99181.69;6270208;22;64315;-83
2023/10/26 07:06:15;;;;;;;;;0.00;0.00;;;;;13.38;100.00;99181.59;6271225;22;45250;-83
2023/10/26 07:08:40;;;;;;;;;0.00;0.00;;;;;13.42;100.00;99190.88;6272267;22;54389;-83
2023/10/26 07:11:06;;;;;;;;;0.00;0.00;;;;;13.47;100.00;99201.06;6271999;22;57671;-85
2023/10/26 07:13:35;;;;;;;;;0.00;0.00;;;;;13.42;100.00;99206.56;6272288;22;45277;-85
2023/10/26 07:16:01;;;;;;;;;0.00;0.00;;;;;13.45;100.00;99210.78;6273704;22;45247;-84
2023/10/26 07:18:27;;;;;;;;;0.00;0.00;;;;;13.40;100.00;99207.63;6273119;22;45356;-86
2023/10/26 07:20:53;;;;;;;;;0.00;0.00;;;;;13.40;100.00;99223.31;6273778;22;46125;-83
2023/10/26 07:23:18;;;;;;;;;0.00;0.00;;;;;13.40;100.00;99231.16;6285660;22;45341;-83
2023/10/26 07:25:44;;;;;;;;;0.00;0.00;;;;;13.40;100.00;99239.81;6304435;22;59254;-85
2023/10/26 07:28:09;;;;;;;;;0.00;0.00;;;;;13.39;100.00;99232.94;6305028;22;45524;-85
2023/10/26 07:30:44;;;;;;;;;0.00;0.00;;;;;13.45;100.00;99234.31;6277601;22;45306;-83
2023/10/26 07:33:10;;;;;;;;;0.00;0.00;;;;;13.46;100.00;99244.63;6304390;22;45383;-83
2023/10/26 07:35:40;;;;;;;;;0.00;0.00;;;;;13.47;100.00;99245.50;6305130;22;45271;-83
2023/10/26 07:38:07;;;;;;;;;0.00;0.00;;;;;13.45;100.00;99257.84;6278612;22;45286;-82
2023/10/26 07:40:33;;;;;;;;;3.00;3.00;;;;;13.50;100.00;99259.22;6304668;22;46281;-84
2023/10/26 07:43:03;;;;;;;;;0.00;0.00;;;;;13.48;100.00;99250.63;6278287;22;46782;-86
2023/10/26 07:45:40;;;;;;;;;0.00;0.00;;;;;13.48;100.00;99257.59;6304739;22;45501;-86
2023/10/26 07:48:15;;;;;;;;;0.00;0.00;;;;;13.52;100.00;99264.31;6305364;22;45287;-86
2023/10/26 07:51:06;;;;;;;;;;;;;;;;;;;;;
2023/10/26 07:53:48;;;;;;;;;0.00;0.00;;;;;13.48;100.00;99287.22;6299053;22;73926;-87
2023/10/26 07:56:23;;;;;;;;;0.00;0.00;;;;;13.46;100.00;99286.47;6280334;22;45416;-87
2023/10/26 07:59:10;;;;;;;;;0.00;0.00;;;;;13.51;100.00;99284.41;6304593;22;45870;-87
2023/10/26 08:02:12;;;;;;;;;0.00;0.00;;;;;13.51;100.00;99294.84;6305015;22;46453;-87
2023/10/26 08:04:37;;;;;;;;;0.00;0.00;;;;;13.49;100.00;99288.88;6279507;22;45322;-86
2023/10/26 08:07:18;;;;;;;;;0.00;0.00;;;;;13.58;100.00;99287.47;6278190;22;45270;-87
2023/10/26 08:09:46;;;;;;;;;0.00;0.00;;;;;13.59;100.00;99280.44;6277702;22;45461;-86
2023/10/26 08:12:17;;;;;;;;;0.00;0.00;;;;;13.60;100.00;99301.28;6277300;22;45615;-87
2023/10/26 08:14:45;;;;;;;;;0.00;0.00;;;;;13.61;100.00;99284.63;6252372;22;45504;-86
2023/10/26 08:17:18;;;;;;;;;0.00;0.00;;;;;13.66;100.00;99295.63;6278103;22;45361;-87
2023/10/26 08:19:50;;;;;;;;;2.00;0.00;;;;;13.65;100.00;99314.03;6305198;22;45359;-87
2023/10/26 08:22:28;;;;;;;;;;;;;;;;;;;;;
2023/10/26 08:25:14;;;;;;;;;0.00;0.00;;;;;13.69;100.00;99319.00;6299520;22;74027;-86
2023/10/26 08:28:06;;;;;;;;;0.00;0.00;;;;;13.70;100.00;99311.97;6304507;22;45305;-87
2023/10/26 08:31:01;;;;;;;;;0.00;0.00;;;;;13.81;100.00;99322.56;6277284;22;45271;-86
2023/10/26 08:33:39;;;;;;;;;0.00;0.00;;;;;13.76;100.00;99311.56;6274288;22;45386;-86
2023/10/26 08:36:16;;;;;;;;;0.00;0.00;;;;;13.87;100.00;99308.25;6277736;22;45699;-86
2023/10/26 08:38:46;;;;;;;;;0.00;0.00;;;;;13.86;100.00;99323.13;6277860;22;45291;-86
2023/10/26 08:41:16;;;;;;;;;0.00;0.00;;;;;13.88;100.00;99325.66;6278333;22;45472;-86
2023/10/26 08:43:43;;;;;;;;;1.00;0.00;;;;;13.89;100.00;99304.63;6304906;22;46112;-85
2023/10/26 08:46:10;;;;;;;;;0.00;0.00;;;;;13.98;100.00;99318.03;6277330;22;45613;-84
2023/10/26 08:48:38;;;;;;;;;0.00;0.00;;;;;14.01;100.00;99339.59;6304302;22;45263;-83
2023/10/26 08:51:04;;;;;;;;;0.00;0.00;;;;;13.98;100.00;99329.31;6304199;22;45353;-84
2023/10/26 08:53:30;;;;;;;;;0.00;0.00;;;;;13.99;100.00;99328.41;6276301;22;45541;-83
2023/10/26 08:55:55;;;;;;;;;0.00;0.00;;;;;14.04;100.00;99328.06;6304069;22;45405;-84
2023/10/26 08:58:21;;;;;;;;;0.00;0.00;;;;;14.09;100.00;99339.91;6277017;22;45317;-84
2023/10/26 09:00:46;;;;;;;;;0.00;0.00;;;;;14.04;100.00;99335.94;6251250;22;45283;-84
2023/10/26 09:03:12;;;;;;;;;0.00;0.00;;;;;14.07;100.00;99347.03;6304681;22;45336;-84
2023/10/26 09:05:54;;;;;;;;;0.00;0.00;;;;;14.10;100.00;99346.00;6305005;22;45485;-84
2023/10/26 09:08:19;;;;;;;;;0.00;0.00;;;;;14.12;100.00;99351.97;6304664;22;45416;-84
2023/10/26 09:10:45;;;;;;;;;0.00;0.00;;;;;14.10;100.00;99349.44;6304100;22;45261;-83
2023/10/26 09:13:11;;;;;;;;;0.00;0.00;;;;;14.09;100.00;99345.16;6304707;22;46206;-82
2023/10/26 09:15:53;;;;;;;;;0.00;0.00;;;;;14.12;100.00;99355.44;6277123;22;45358;-83
2023/10/26 09:18:20;;;;;;;;;0.00;0.00;;;;;14.12;100.00;99352.81;6304157;22;45232;-84
2023/10/26 09:21:03;;;;;;;;;0.00;0.00;;;;;14.18;100.00;99358.59;6304278;22;45648;-83
2023/10/26 09:23:30;;;;;;;;;0.00;0.00;;;;;14.21;100.00;99371.44;6276732;22;46080;-83
2023/10/26 09:26:01;;;;;;;;;0.00;0.00;;;;;14.21;100.00;99374.06;6303950;22;45466;-83
2023/10/26 09:28:27;;;;;;;;;0.00;0.00;;;;;14.22;100.00;99367.91;6303923;22;45298;-82
2023/10/26 09:30:59;;;;;;;;;4.00;0.00;;;;;14.26;100.00;99372.00;6277089;22;48484;-84
2023/10/26 09:36:59;;;;;;;;;0.00;0.00;;;;;14.33;100.00;99370.66;6333222;22;46851;-83
2023/10/26 09:41:53;;;;;;;;;0.00;0.00;;;;;14.48;100.00;99400.22;6333331;22;66217;-82
2023/10/26 09:44:21;;;;;;;;;0.00;0.00;;;;;14.47;100.00;99386.28;6307905;22;46166;-82
2023/10/26 09:46:47;;;;;;;;;0.00;0.00;;;;;14.57;100.00;99385.66;6280728;22;53959;-81
2023/10/26 09:49:13;;;;;;;;;0.00;0.00;;;;;14.69;100.00;99390.09;6281815;22;45289;-80
2023/10/26 09:51:38;;;;;;;;;1.00;1.00;;;;;14.75;100.00;99392.31;6307183;22;64492;-82
2023/10/26 09:54:10;;;;;;;;;0.00;0.00;;;;;14.83;100.00;99384.78;6307168;22;45575;-83
2023/10/26 09:59:58;;;;;;;;;0.00;0.00;;;;;14.95;100.00;99354.28;6308336;22;45527;-80
2023/10/26 10:02:24;;;;;;;;;0.00;0.00;;;;;15.05;100.00;99357.09;6335980;22;45361;-81
2023/10/26 10:04:49;;;;;;;;;0.00;0.00;;;;;15.07;100.00;99352.59;6335765;22;46224;-82
2023/10/26 10:07:20;;;;;;;;;0.00;0.00;;;;;15.16;100.00;99359.81;6335877;22;45341;-82
2023/10/26 10:10:04;;;;;;;;;0.75;0.00;;;;;15.16;100.00;99359.81;6307280;22;45395;-82
2023/10/26 10:12:30;;;;;;;;;0.00;0.00;;;;;15.16;100.00;99362.44;6336479;22;45416;-81
2023/10/26 10:14:58;;;;;;;;;0.00;0.00;;;;;15.23;100.00;99366.31;6307912;22;46081;-82
2023/10/26 10:17:45;;;;;;;;;0.00;0.00;;;;;15.38;100.00;99360.91;6308301;22;45384;-83
2023/10/26 10:20:14;;;;;;;;;0.00;0.00;;;;;15.49;100.00;99364.47;6307930;22;45309;-84
2023/10/26 10:22:46;;;;;;;;;0.00;0.00;;;;;15.56;100.00;99374.50;6335489;22;45357;-83
2023/10/26 10:25:12;;;;;;;;;0.00;0.00;;;;;15.55;100.00;99393.81;6280651;22;46969;-84
2023/10/26 10:28:00;;;;;;;;;0.00;0.00;;;;;15.65;100.00;99384.34;6281555;22;46067;-83
2023/10/26 10:30:31;;;;;;;;;0.00;0.00;;;;;15.78;100.00;99384.34;6335177;22;45509;-84
2023/10/26 10:32:57;;;;;;;;;0.00;0.00;;;;;15.79;100.00;99392.09;6308069;22;45301;-84
2023/10/26 10:35:28;;;;;;;;;0.00;0.00;;;;;15.85;100.00;99398.69;6335308;22;46453;-84
2023/10/26 10:38:15;;;;;;;;;0.00;0.00;;;;;15.86;100.00;99401.19;6334600;22;45258;-83
2023/10/26 10:40:59;;;;;;;;;0.00;0.00;;;;;15.82;100.00;99399.75;6335028;22;45303;-84
2023/10/26 10:43:34;;;;;;;;;0.00;0.00;;;;;15.83;100.00;99395.34;6333571;22;45481;-82
2023/10/26 10:46:18;;;;;;;;;0.00;0.00;;;;;15.83;100.00;99403.22;6333861;22;47065;-84
2023/10/26 10:49:14;;;;;;;;;0.00;0.00;;;;;15.85;100.00;99390.81;6335732;22;45245;-83
2023/10/26 10:51:41;;;;;;;;;0.00;0.00;;;;;15.85;100.00;99396.88;6214023;22;45426;-83
2023/10/26 10:54:12;;;;;;;;;0.00;0.00;;;;;15.92;100.00;99399.91;6239703;22;45544;-83
2023/10/26 10:56:42;;;;;;;;;0.00;0.00;;;;;15.93;100.00;99391.09;6239353;22;46244;-83
2023/10/26 10:59:23;;;;;;;;;0.00;0.00;;;;;15.98;100.00;99399.47;6239185;22;45251;-82
2023/10/26 11:01:50;;;;;;;;;0.00;0.00;;;;;15.96;100.00;99387.41;6239655;22;45397;-83
2023/10/26 11:04:15;;;;;;;;;1.00;1.00;;;;;15.98;100.00;99388.13;6214854;22;45314;-82
2023/10/26 11:06:46;;;;;;;;;0.00;0.00;;;;;15.93;100.00;99374.50;6239314;22;46323;-83
2023/10/26 11:09:37;;;;;;;;;0.00;0.00;;;;;15.98;100.00;99390.75;6240321;22;45398;-83
2023/10/26 11:12:12;;;;;;;;;0.00;0.00;;;;;16.07;100.00;99382.22;6240391;22;45359;-83
2023/10/26 11:14:50;;;;;;;;;0.00;0.00;;;;;16.11;100.00;99395.97;6239983;22;45386;-83
2023/10/26 11:17:17;;;;;;;;;0.00;0.00;;;;;16.14;100.00;99398.34;6240480;22;46497;-82
2023/10/26 11:19:43;;;;;;;;;0.00;0.00;;;;;16.18;100.00;99374.38;6214931;22;45361;-83
2023/10/26 11:22:08;;;;;;;;;0.00;0.00;;;;;16.19;100.00;99378.66;6216480;22;49896;-83
2023/10/26 11:24:33;;;;;;;;;0.00;0.00;;;;;16.30;100.00;99375.25;6214383;22;63080;-83
2023/10/26 11:27:16;;;;;;;;;0.00;0.00;;;;;16.35;100.00;99369.69;6219201;22;50066;-83
2023/10/26 11:29:43;;;;;;;;;0.00;0.00;;;;;16.43;100.00;99377.81;6336310;22;45415;-83
2023/10/26 11:32:24;;;;;;;;;0.00;0.00;;;;;16.44;100.00;99380.31;6336418;22;45341;-83
2023/10/26 11:35:08;;;;;;;;;0.00;0.00;;;;;16.40;100.00;99384.13;6309087;22;45321;-84
2023/10/26 11:37:35;;;;;;;;;0.00;0.00;;;;;16.51;100.00;99378.09;6335563;22;46125;-82
2023/10/26 11:40:02;;;;;;;;;0.00;0.00;;;;;16.67;100.00;99369.88;6336726;22;45284;-81
2023/10/26 11:42:46;;;;;;;;;0.00;0.00;;;;;16.85;100.00;99358.94;6308219;22;45340;-82
2023/10/26 11:45:13;;;;;;;;;0.00;0.00;;;;;16.96;100.00;99351.91;6336643;22;45453;-83
2023/10/26 11:47:58;;;;;;;;;0.00;0.00;;;;;17.13;100.00;99334.81;6335999;22;46189;-84
2023/10/26 11:50:29;;;;;;;;;0.00;0.00;;;;;17.36;100.00;99324.25;6336197;22;45320;-84
2023/10/26 11:52:59;;;;;;;;;0.00;0.00;;;;;17.50;100.00;99329.25;6308823;22;45602;-82
2023/10/26 11:55:26;;;;;;;;;0.00;0.00;;;;;17.55;100.00;99337.63;6307442;22;45384;-84
2023/10/26 11:57:55;;;;;;;;;0.00;0.00;;;;;17.64;100.00;99341.28;6306357;22;45735;-85
2023/10/26 12:00:20;;;;;;;;;0.00;0.00;;;;;17.75;100.00;99336.00;6336612;22;45417;-84
2023/10/26 12:02:45;;;;;;;;;0.00;0.00;;;;;17.90;100.00;99335.75;6308818;22;45348;-85
2023/10/26 12:05:15;;;;;;;;;0.00;0.00;;;;;18.02;100.00;99341.81;6308250;22;45423;-86
2023/10/26 12:07:41;;;;;;;;;0.00;0.00;;;;;18.25;100.00;99334.63;6309036;22;46446;-86
2023/10/26 12:10:06;;;;;;;;;0.00;0.00;;;;;18.36;100.00;99332.78;6336200;22;45251;-85
2023/10/26 12:12:32;;;;;;;;;0.00;0.00;;;;;18.55;100.00;99325.94;6308436;22;45281;-83
2023/10/26 12:14:57;;;;;;;;;0.00;0.00;;;;;18.63;100.00;99322.66;6309345;22;45502;-84
2023/10/26 12:17:22;;;;;;;;;0.00;0.00;;;;;18.93;100.00;99320.06;6308218;22;47144;-85
2023/10/26 12:19:48;;;;;;;;;0.00;0.00;;;;;19.75;100.00;99327.97;6336052;22;45227;-85
2023/10/26 12:22:15;;;;;;;;;0.00;0.00;;;;;20.23;100.00;99320.03;6336421;22;45293;-84
2023/10/26 12:24:41;;;;;;;;;0.00;0.00;;;;;20.17;100.00;99325.88;6308524;22;45491;-85
2023/10/26 12:27:16;;;;;;;;;;;;;;;;;;;;;
2023/10/26 12:29:43;;;;;;;;;0.00;0.00;;;;;19.39;100.00;99315.22;6309991;22;73016;-84
2023/10/26 12:32:09;;;;;;;;;0.00;0.00;;;;;19.17;100.00;99311.00;6335784;22;45407;-83
2023/10/26 12:34:34;;;;;;;;;0.00;0.00;;;;;19.15;100.00;99311.13;6336320;22;45320;-85
2023/10/26 12:37:05;;;;;;;;;0.00;0.00;;;;;18.99;100.00;99304.69;6307927;22;46424;-85
2023/10/26 12:39:31;;;;;;;;;0.00;0.00;;;;;18.83;100.00;99302.53;6308809;22;45302;-85
2023/10/26 12:41:57;;;;;;;;;0.00;0.00;;;;;18.68;100.00;99296.75;6336794;22;45407;-84
2023/10/26 12:44:24;;;;;;;;;0.00;0.00;;;;;18.55;100.00;99296.97;6282323;22;45268;-85
2023/10/26 12:46:52;;;;;;;;;3.00;3.00;;;;;18.51;100.00;99293.75;6308250;22;47094;-85
2023/10/26 12:49:18;;;;;;;;;0.00;0.00;;;;;18.57;100.00;99284.50;6335956;22;45319;-85